sensor_id;sensor_type;location;lat;lon;timestamp;pressure;altitude;pressure_sealevel;temperature;humidity
66164;BME280;52962;51.088;3.096;2023-06-22T00:00:37;101604.28;;;20.32;100.00
66164;BME280;52962;51.088;3.096;2023-06-22T00:03:06;101602.59;;;20.18;100.00
66164;BME280;52962;51.088;3.096;2023-06-22T00:05:34;101611.50;;;20.20;100.00
66164;BME280;52962;51.088;3.096;2023-06-22T00:08:03;101607.03;;;20.22;100.00
66164;BME280;52962;51.088;3.096;2023-06-22T00:10:32;101601.69;;;20.22;100.00
66164;BME280;52962;51.088;3.096;2023-06-22T00:13:01;101606.13;;;20.23;100.00
66164;BME280;52962;51.088;3.096;2023-06-22T00:15:29;101603.47;;;20.20;100.00
66164;BME280;52962;51.088;3.096;2023-06-22T00:17:58;101608.88;;;20.14;100.00
66164;BME280;52962;51.088;3.096;2023-06-22T00:20:26;101597.28;;;20.12;100.00
66164;BME280;52962;51.088;3.096;2023-06-22T00:22:57;101595.56;;;20.05;100.00
66164;BME280;52962;51.088;3.096;2023-06-22T00:25:25;101597.38;;;20.00;100.00
66164;BME280;52962;51.088;3.096;2023-06-22T00:27:53;101596.47;;;20.00;100.00
66164;BME280;52962;51.088;3.096;2023-06-22T00:30:23;101595.63;;;19.96;100.00
66164;BME280;52962;51.088;3.096;2023-06-22T00:32:52;101592.06;;;19.91;100.00
66164;BME280;52962;51.088;3.096;2023-06-22T00:35:21;101593.94;;;19.80;100.00
66164;BME280;52962;51.088;3.096;2023-06-22T00:37:49;101595.81;;;19.69;100.00
66164;BME280;52962;51.088;3.096;2023-06-22T00:40:19;101583.34;;;19.65;100.00
66164;BME280;52962;51.088;3.096;2023-06-22T00:42:48;101591.38;;;19.65;100.00
66164;BME280;52962;51.088;3.096;2023-06-22T00:45:16;101589.63;;;19.54;100.00
66164;BME280;52962;51.088;3.096;2023-06-22T00:47:46;101595.88;;;19.44;100.00
66164;BME280;52962;51.088;3.096;2023-06-22T00:50:18;101591.50;;;19.25;100.00
66164;BME280;52962;51.088;3.096;2023-06-22T00:52:51;101590.66;;;19.08;100.00
66164;BME280;52962;51.088;3.096;2023-06-22T00:55:20;101587.13;;;19.03;100.00
66164;BME280;52962;51.088;3.096;2023-06-22T00:57:50;101589.78;;;19.01;100.00
66164;BME280;52962;51.088;3.096;2023-06-22T01:00:23;101592.44;;;19.03;100.00
66164;BME280;52962;51.088;3.096;2023-06-22T01:02:54;101589.78;;;19.04;100.00
66164;BME280;52962;51.088;3.096;2023-06-22T01:05:24;101588.88;;;19.04;100.00
66164;BME280;52962;51.088;3.096;2023-06-22T01:08:00;101583.56;;;19.04;100.00
66164;BME280;52962;51.088;3.096;2023-06-22T01:10:37;101587.09;;;19.09;100.00
66164;BME280;52962;51.088;3.096;2023-06-22T01:13:14;101585.31;;;19.08;100.00
66164;BME280;52962;51.088;3.096;2023-06-22T01:15:47;101579.97;;;19.11;100.00
66164;BME280;52962;51.088;3.096;2023-06-22T01:18:20;101571.06;;;19.18;100.00
66164;BME280;52962;51.088;3.096;2023-06-22T01:20:50;101578.13;;;19.30;100.00
66164;BME280;52962;51.088;3.096;2023-06-22T01:23:27;101580.81;;;19.26;100.00
66164;BME280;52962;51.088;3.096;2023-06-22T01:26:04;101578.19;;;19.14;100.00
66164;BME280;52962;51.088;3.096;2023-06-22T01:28:45;101572.84;;;19.10;100.00
66164;BME280;52962;51.088;3.096;2023-06-22T01:31:16;101570.19;;;19.07;100.00
66164;BME280;52962;51.088;3.096;2023-06-22T01:33:51;101566.63;;;19.05;100.00
66164;BME280;52962;51.088;3.096;2023-06-22T01:36:21;101574.63;;;19.11;100.00
66164;BME280;52962;51.088;3.096;2023-06-22T01:38:50;101571.94;;;19.15;100.00
66164;BME280;52962;51.088;3.096;2023-06-22T01:41:24;101572.84;;;19.16;100.00
66164;BME280;52962;51.088;3.096;2023-06-22T01:43:55;101578.16;;;19.19;100.00
66164;BME280;52962;51.088;3.096;2023-06-22T01:46:23;101579.94;;;19.18;100.00
66164;BME280;52962;51.088;3.096;2023-06-22T01:48:52;101576.41;;;19.18;100.00
66164;BME280;52962;51.088;3.096;2023-06-22T01:51:21;101587.94;;;19.21;100.00
66164;BME280;52962;51.088;3.096;2023-06-22T01:53:50;101585.28;;;19.15;100.00
66164;BME280;52962;51.088;3.096;2023-06-22T01:56:18;101579.06;;;19.15;100.00
66164;BME280;52962;51.088;3.096;2023-06-22T01:58:51;101585.31;;;19.14;100.00
66164;BME280;52962;51.088;3.096;2023-06-22T02:01:28;101592.41;;;19.16;100.00
66164;BME280;52962;51.088;3.096;2023-06-22T02:04:03;101588.88;;;19.13;100.00
66164;BME280;52962;51.088;3.096;2023-06-22T02:06:37;101596.00;;;19.11;100.00
66164;BME280;52962;51.088;3.096;2023-06-22T02:09:09;101596.00;;;19.05;100.00
66164;BME280;52962;51.088;3.096;2023-06-22T02:11:41;101602.25;;;19.01;100.00
66164;BME280;52962;51.088;3.096;2023-06-22T02:14:10;101601.34;;;19.02;100.00
66164;BME280;52962;51.088;3.096;2023-06-22T02:16:41;101602.25;;;19.02;100.00
66164;BME280;52962;51.088;3.096;2023-06-22T02:19:10;101588.03;;;18.95;100.00
66164;BME280;52962;51.088;3.096;2023-06-22T02:21:38;101585.34;;;18.92;100.00
66164;BME280;52962;51.088;3.096;2023-06-22T02:24:07;101580.91;;;18.93;100.00
66164;BME280;52962;51.088;3.096;2023-06-22T02:26:35;101569.34;;;18.89;100.00
66164;BME280;52962;51.088;3.096;2023-06-22T02:29:05;101574.69;;;18.86;100.00
66164;BME280;52962;51.088;3.096;2023-06-22T02:31:33;101572.03;;;18.85;100.00
66164;BME280;52962;51.088;3.096;2023-06-22T02:34:03;101560.47;;;18.81;100.00
66164;BME280;52962;51.088;3.096;2023-06-22T02:36:31;101564.94;;;18.76;100.00
66164;BME280;52962;51.088;3.096;2023-06-22T02:39:00;101558.69;;;18.77;100.00
66164;BME280;52962;51.088;3.096;2023-06-22T02:41:30;101564.03;;;18.83;100.00
66164;BME280;52962;51.088;3.096;2023-06-22T02:43:58;101564.03;;;18.83;100.00
66164;BME280;52962;51.088;3.096;2023-06-22T02:46:26;101564.03;;;18.86;100.00
66164;BME280;52962;51.088;3.096;2023-06-22T02:48:55;101554.22;;;18.87;100.00
66164;BME280;52962;51.088;3.096;2023-06-22T02:51:24;101556.91;;;18.88;100.00
66164;BME280;52962;51.088;3.096;2023-06-22T02:53:52;101555.13;;;18.87;100.00
66164;BME280;52962;51.088;3.096;2023-06-22T02:56:28;101548.91;;;18.84;100.00
66164;BME280;52962;51.088;3.096;2023-06-22T02:58:59;101548.91;;;18.82;100.00
66164;BME280;52962;51.088;3.096;2023-06-22T03:01:35;101551.56;;;18.82;100.00
66164;BME280;52962;51.088;3.096;2023-06-22T03:04:19;101548.91;;;18.81;100.00
66164;BME280;52962;51.088;3.096;2023-06-22T03:06:48;101540.91;;;18.82;100.00
66164;BME280;52962;51.088;3.096;2023-06-22T03:09:18;101547.13;;;18.80;100.00
66164;BME280;52962;51.088;3.096;2023-06-22T03:11:46;101547.13;;;18.77;100.00
66164;BME280;52962;51.088;3.096;2023-06-22T03:14:15;101549.81;;;18.75;100.00
66164;BME280;52962;51.088;3.096;2023-06-22T03:16:43;101549.81;;;18.75;100.00
66164;BME280;52962;51.088;3.096;2023-06-22T03:19:11;101542.69;;;18.80;100.00
66164;BME280;52962;51.088;3.096;2023-06-22T03:21:40;101536.44;;;18.84;100.00
66164;BME280;52962;51.088;3.096;2023-06-22T03:24:09;101540.88;;;18.91;100.00
66164;BME280;52962;51.088;3.096;2023-06-22T03:26:38;101536.44;;;18.83;100.00
66164;BME280;52962;51.088;3.096;2023-06-22T03:29:06;101542.69;;;18.80;100.00
66164;BME280;52962;51.088;3.096;2023-06-22T03:31:34;101530.25;;;18.75;100.00
66164;BME280;52962;51.088;3.096;2023-06-22T03:34:05;101531.19;;;18.71;100.00
66164;BME280;52962;51.088;3.096;2023-06-22T03:36:33;101527.63;;;18.61;100.00
66164;BME280;52962;51.088;3.096;2023-06-22T03:39:01;101520.50;;;18.49;100.00
66164;BME280;52962;51.088;3.096;2023-06-22T03:41:31;101508.97;;;18.41;100.00
66164;BME280;52962;51.088;3.096;2023-06-22T03:43:59;101512.50;;;18.39;100.00
66164;BME280;52962;51.088;3.096;2023-06-22T03:46:27;101519.63;;;18.40;100.00
66164;BME280;52962;51.088;3.096;2023-06-22T03:48:55;101521.41;;;18.38;100.00
66164;BME280;52962;51.088;3.096;2023-06-22T03:51:24;101524.06;;;18.41;100.00
66164;BME280;52962;51.088;3.096;2023-06-22T03:53:51;101536.50;;;18.40;100.00
66164;BME280;52962;51.088;3.096;2023-06-22T03:56:20;101536.50;;;18.45;100.00
66164;BME280;52962;51.088;3.096;2023-06-22T03:58:49;101536.50;;;18.49;100.00
66164;BME280;52962;51.088;3.096;2023-06-22T04:01:18;101537.38;;;18.56;100.00
66164;BME280;52962;51.088;3.096;2023-06-22T04:03:46;101537.38;;;18.59;100.00
66164;BME280;52962;51.088;3.096;2023-06-22T04:06:16;101532.06;;;18.57;100.00
66164;BME280;52962;51.088;3.096;2023-06-22T04:08:45;101539.16;;;18.54;100.00
66164;BME280;52962;51.088;3.096;2023-06-22T04:11:15;101548.06;;;18.59;100.00
66164;BME280;52962;51.088;3.096;2023-06-22T04:13:43;101549.88;;;18.65;100.00
66164;BME280;52962;51.088;3.096;2023-06-22T04:16:12;101543.63;;;18.67;100.00
66164;BME280;52962;51.088;3.096;2023-06-22T04:18:40;101542.69;;;18.74;100.00
66164;BME280;52962;51.088;3.096;2023-06-22T04:21:10;101548.91;;;18.82;100.00
66164;BME280;52962;51.088;3.096;2023-06-22T04:23:38;101537.34;;;18.82;100.00
66164;BME280;52962;51.088;3.096;2023-06-22T04:26:06;101544.47;;;18.81;100.00
66164;BME280;52962;51.088;3.096;2023-06-22T04:28:34;101549.81;;;18.80;100.00
66164;BME280;52962;51.088;3.096;2023-06-22T04:31:02;101538.22;;;18.90;100.00
66164;BME280;52962;51.088;3.096;2023-06-22T04:33:32;101535.53;;;18.88;100.00
66164;BME280;52962;51.088;3.096;2023-06-22T04:36:01;101535.53;;;18.88;100.00
66164;BME280;52962;51.088;3.096;2023-06-22T04:38:30;101528.41;;;18.90;100.00
66164;BME280;52962;51.088;3.096;2023-06-22T04:40:59;101539.09;;;18.93;100.00
66164;BME280;52962;51.088;3.096;2023-06-22T04:43:29;101528.41;;;18.97;100.00
66164;BME280;52962;51.088;3.096;2023-06-22T04:45:57;101537.28;;;19.05;100.00
66164;BME280;52962;51.088;3.096;2023-06-22T04:48:30;101541.72;;;19.09;100.00
66164;BME280;52962;51.088;3.096;2023-06-22T04:51:01;101533.69;;;19.15;100.00
66164;BME280;52962;51.088;3.096;2023-06-22T04:53:32;101539.88;;;19.24;100.00
66164;BME280;52962;51.088;3.096;2023-06-22T04:56:00;101538.97;;;19.30;100.00
66164;BME280;52962;51.088;3.096;2023-06-22T04:58:31;101538.03;;;19.40;100.00
66164;BME280;52962;51.088;3.096;2023-06-22T05:00:59;101543.31;;;19.49;100.00
66164;BME280;52962;51.088;3.096;2023-06-22T05:03:27;101538.88;;;19.48;100.00
66164;BME280;52962;51.088;3.096;2023-06-22T05:05:55;101534.41;;;19.55;100.00
66164;BME280;52962;51.088;3.096;2023-06-22T05:08:25;101534.41;;;19.59;100.00
66164;BME280;52962;51.088;3.096;2023-06-22T05:10:55;101533.47;;;19.67;100.00
66164;BME280;52962;51.088;3.096;2023-06-22T05:13:31;101533.44;;;19.73;100.00
66164;BME280;52962;51.088;3.096;2023-06-22T05:16:00;101526.22;;;19.78;100.00
66164;BME280;52962;51.088;3.096;2023-06-22T05:18:30;101534.22;;;19.82;100.00
66164;BME280;52962;51.088;3.096;2023-06-22T05:20:59;101535.03;;;19.92;100.00
66164;BME280;52962;51.088;3.096;2023-06-22T05:23:29;101545.72;;;19.97;100.00
66164;BME280;52962;51.088;3.096;2023-06-22T05:25:57;101533.16;;;20.08;100.00
66164;BME280;52962;51.088;3.096;2023-06-22T05:28:25;101533.09;;;20.15;100.00
66164;BME280;52962;51.088;3.096;2023-06-22T05:30:53;101533.91;;;20.25;100.00
66164;BME280;52962;51.088;3.096;2023-06-22T05:33:21;101532.97;;;20.31;100.00
66164;BME280;52962;51.088;3.096;2023-06-22T05:35:50;101532.03;;;20.36;100.00
66164;BME280;52962;51.088;3.096;2023-06-22T05:38:18;101524.88;;;20.41;100.00
66164;BME280;52962;51.088;3.096;2023-06-22T05:40:48;101527.50;;;20.46;100.00
66164;BME280;52962;51.088;3.096;2023-06-22T05:43:16;101532.78;;;20.55;100.00
66164;BME280;52962;51.088;3.096;2023-06-22T05:45:44;101535.44;;;20.55;100.00
66164;BME280;52962;51.088;3.096;2023-06-22T05:48:12;101525.63;;;20.57;100.00
66164;BME280;52962;51.088;3.096;2023-06-22T05:50:40;101534.41;;;20.68;100.00
66164;BME280;52962;51.088;3.096;2023-06-22T05:53:08;101523.69;;;20.71;100.00
66164;BME280;52962;51.088;3.096;2023-06-22T05:55:37;101512.94;;;20.74;100.00
66164;BME280;52962;51.088;3.096;2023-06-22T05:58:06;101512.03;;;20.75;100.00
66164;BME280;52962;51.088;3.096;2023-06-22T06:00:34;101514.78;;;20.69;100.00
66164;BME280;52962;51.088;3.096;2023-06-22T06:03:03;101508.38;;;20.82;100.00
66164;BME280;52962;51.088;3.096;2023-06-22T06:05:31;101506.59;;;20.81;100.00
66164;BME280;52962;51.088;3.096;2023-06-22T06:08:00;101503.81;;;20.90;100.00
66164;BME280;52962;51.088;3.096;2023-06-22T06:10:29;101501.97;;;20.96;100.00
66164;BME280;52962;51.088;3.096;2023-06-22T06:12:58;101505.53;;;20.95;100.00
66164;BME280;52962;51.088;3.096;2023-06-22T06:15:30;101506.34;;;21.01;100.00
66164;BME280;52962;51.088;3.096;2023-06-22T06:17:59;101497.31;;;21.11;100.00
66164;BME280;52962;51.088;3.096;2023-06-22T06:20:27;101489.09;;;21.28;100.00
66164;BME280;52962;51.088;3.096;2023-06-22T06:22:56;101487.34;;;21.21;100.00
66164;BME280;52962;51.088;3.096;2023-06-22T06:25:24;101487.06;;;21.45;100.00
66164;BME280;52962;51.088;3.096;2023-06-22T06:27:53;101479.88;;;21.49;100.00
66164;BME280;52962;51.088;3.096;2023-06-22T06:30:22;101481.44;;;21.64;100.00
66164;BME280;52962;51.088;3.096;2023-06-22T06:32:52;101477.03;;;21.60;100.00
66164;BME280;52962;51.088;3.096;2023-06-22T06:35:21;101472.53;;;21.62;100.00
66164;BME280;52962;51.088;3.096;2023-06-22T06:37:50;101472.25;;;21.80;100.00
66164;BME280;52962;51.088;3.096;2023-06-22T06:40:18;101475.66;;;21.88;100.00
66164;BME280;52962;51.088;3.096;2023-06-22T06:42:47;101474.69;;;21.92;100.00
66164;BME280;52962;51.088;3.096;2023-06-22T06:45:17;101473.00;;;21.86;100.00
66164;BME280;52962;51.088;3.096;2023-06-22T06:47:46;101470.25;;;21.91;100.00
66164;BME280;52962;51.088;3.096;2023-06-22T06:50:16;101476.41;;;21.96;100.00
66164;BME280;52962;51.088;3.096;2023-06-22T06:52:44;101472.78;;;21.99;100.00
66164;BME280;52962;51.088;3.096;2023-06-22T06:55:13;101472.72;;;22.05;100.00
66164;BME280;52962;51.088;3.096;2023-06-22T06:57:42;101468.19;;;22.10;100.00
66164;BME280;52962;51.088;3.096;2023-06-22T07:00:12;101474.72;;;22.44;100.00
66164;BME280;52962;51.088;3.096;2023-06-22T07:02:52;101472.56;;;22.63;100.00
66164;BME280;52962;51.088;3.096;2023-06-22T07:05:22;101469.34;;;22.44;100.00
66164;BME280;52962;51.088;3.096;2023-06-22T07:07:50;101467.38;;;22.54;100.00
66164;BME280;52962;51.088;3.096;2023-06-22T07:10:20;101461.88;;;22.60;100.00
66164;BME280;52962;51.088;3.096;2023-06-22T07:12:48;101461.88;;;22.60;100.00
66164;BME280;52962;51.088;3.096;2023-06-22T07:15:16;101459.84;;;22.73;100.00
66164;BME280;52962;51.088;3.096;2023-06-22T07:17:45;101452.53;;;22.82;100.00
66164;BME280;52962;51.088;3.096;2023-06-22T07:20:13;101451.38;;;22.93;100.00
66164;BME280;52962;51.088;3.096;2023-06-22T07:22:44;101449.56;;;22.95;100.00
66164;BME280;52962;51.088;3.096;2023-06-22T07:25:12;101446.66;;;23.04;100.00
66164;BME280;52962;51.088;3.096;2023-06-22T07:27:46;101443.19;;;22.99;100.00
66164;BME280;52962;51.088;3.096;2023-06-22T07:30:15;101440.28;;;23.09;100.00
66164;BME280;52962;51.088;3.096;2023-06-22T07:32:43;101438.94;;;23.29;100.00
66164;BME280;52962;51.088;3.096;2023-06-22T07:35:11;101432.34;;;23.43;100.00
66164;BME280;52962;51.088;3.096;2023-06-22T07:37:39;101430.31;;;23.53;100.00
66164;BME280;52962;51.088;3.096;2023-06-22T07:40:10;101434.69;;;23.59;100.00
66164;BME280;52962;51.088;3.096;2023-06-22T07:42:39;101434.63;;;23.62;100.00
66164;BME280;52962;51.088;3.096;2023-06-22T07:45:07;101422.25;;;23.55;100.00
66164;BME280;52962;51.088;3.096;2023-06-22T07:47:36;101435.69;;;23.53;100.00
66164;BME280;52962;51.088;3.096;2023-06-22T07:50:05;101427.63;;;23.55;100.00
66164;BME280;52962;51.088;3.096;2023-06-22T07:52:33;101437.38;;;23.59;100.00
66164;BME280;52962;51.088;3.096;2023-06-22T07:55:02;101434.88;;;23.49;100.00
66164;BME280;52962;51.088;3.096;2023-06-22T07:57:32;101439.31;;;23.52;100.00
66164;BME280;52962;51.088;3.096;2023-06-22T08:00:03;101439.09;;;23.63;100.00
66164;BME280;52962;51.088;3.096;2023-06-22T08:02:38;101441.56;;;23.72;100.00
66164;BME280;52962;51.088;3.096;2023-06-22T08:05:07;101436.25;;;23.69;100.00
66164;BME280;52962;51.088;3.096;2023-06-22T08:07:48;101437.91;;;23.74;100.00
66164;BME280;52962;51.088;3.096;2023-06-22T08:10:18;101437.88;;;23.76;100.00
66164;BME280;52962;51.088;3.096;2023-06-22T08:12:49;101440.78;;;23.67;100.00
66164;BME280;52962;51.088;3.096;2023-06-22T08:15:18;101432.59;;;23.71;100.00
66164;BME280;52962;51.088;3.096;2023-06-22T08:17:46;101433.38;;;23.76;100.00
66164;BME280;52962;51.088;3.096;2023-06-22T08:20:14;101427.03;;;23.79;100.00
66164;BME280;52962;51.088;3.096;2023-06-22T08:22:43;101424.34;;;23.79;100.00
66164;BME280;52962;51.088;3.096;2023-06-22T08:25:11;101426.38;;;23.69;100.00
66164;BME280;52962;51.088;3.096;2023-06-22T08:27:40;101428.94;;;23.74;100.00
66164;BME280;52962;51.088;3.096;2023-06-22T08:30:10;101423.50;;;23.77;100.00
66164;BME280;52962;51.088;3.096;2023-06-22T08:32:39;101426.97;;;23.82;100.00
66164;BME280;52962;51.088;3.096;2023-06-22T08:35:08;101430.34;;;23.90;100.00
66164;BME280;52962;51.088;3.096;2023-06-22T08:37:36;101424.06;;;23.90;100.00
66164;BME280;52962;51.088;3.096;2023-06-22T08:40:08;101428.31;;;23.98;100.00
66164;BME280;52962;51.088;3.096;2023-06-22T08:42:39;101428.06;;;24.07;100.00
66164;BME280;52962;51.088;3.096;2023-06-22T08:45:10;101431.47;;;24.14;100.00
66164;BME280;52962;51.088;3.096;2023-06-22T08:47:39;101426.59;;;24.30;100.00
66164;BME280;52962;51.088;3.096;2023-06-22T08:50:08;101428.19;;;24.37;100.00
66164;BME280;52962;51.088;3.096;2023-06-22T08:52:38;101426.41;;;24.37;100.00
66164;BME280;52962;51.088;3.096;2023-06-22T08:55:09;101431.94;;;24.31;100.00
66164;BME280;52962;51.088;3.096;2023-06-22T08:57:37;101435.44;;;24.35;100.00
66164;BME280;52962;51.088;3.096;2023-06-22T09:00:07;101432.50;;;24.44;100.00
66164;BME280;52962;51.088;3.096;2023-06-22T09:02:46;101420.75;;;24.47;100.00
66164;BME280;52962;51.088;3.096;2023-06-22T09:05:15;101427.69;;;24.55;100.00
66164;BME280;52962;51.088;3.096;2023-06-22T09:07:44;101434.88;;;24.55;100.00
66164;BME280;52962;51.088;3.096;2023-06-22T09:10:13;101433.53;;;24.38;100.00
66164;BME280;52962;51.088;3.096;2023-06-22T09:12:41;101435.84;;;24.52;100.00
66164;BME280;52962;51.088;3.096;2023-06-22T09:15:10;101435.59;;;24.61;100.00
66164;BME280;52962;51.088;3.096;2023-06-22T09:17:55;101438.28;;;24.61;100.00
66164;BME280;52962;51.088;3.096;2023-06-22T09:20:24;101438.59;;;24.51;100.00
66164;BME280;52962;51.088;3.096;2023-06-22T09:22:53;101432.25;;;24.53;100.00
66164;BME280;52962;51.088;3.096;2023-06-22T09:25:21;101435.50;;;24.64;100.00
66164;BME280;52962;51.088;3.096;2023-06-22T09:27:49;101444.66;;;24.59;100.00
66164;BME280;52962;51.088;3.096;2023-06-22T09:30:18;101439.09;;;24.65;100.00
66164;BME280;52962;51.088;3.096;2023-06-22T09:32:46;101437.94;;;24.73;100.00
66164;BME280;52962;51.088;3.096;2023-06-22T09:35:16;101432.94;;;24.60;100.00
66164;BME280;52962;51.088;3.096;2023-06-22T09:37:44;101436.31;;;24.68;100.00
66164;BME280;52962;51.088;3.096;2023-06-22T09:40:12;101442.75;;;24.62;100.00
66164;BME280;52962;51.088;3.096;2023-06-22T09:42:44;101444.53;;;24.63;100.00
66164;BME280;52962;51.088;3.096;2023-06-22T09:45:12;101447.16;;;24.65;100.00
66164;BME280;52962;51.088;3.096;2023-06-22T09:47:40;101447.03;;;24.69;100.00
66164;BME280;52962;51.088;3.096;2023-06-22T09:50:10;101439.03;;;24.66;100.00
66164;BME280;52962;51.088;3.096;2023-06-22T09:52:39;101441.53;;;24.74;100.00
66164;BME280;52962;51.088;3.096;2023-06-22T09:55:14;101442.13;;;24.84;100.00
66164;BME280;52962;51.088;3.096;2023-06-22T09:57:43;101453.25;;;24.71;100.00
66164;BME280;52962;51.088;3.096;2023-06-22T10:00:13;101453.03;;;24.79;100.00
66164;BME280;52962;51.088;3.096;2023-06-22T10:02:42;101448.59;;;24.78;100.00
66164;BME280;52962;51.088;3.096;2023-06-22T10:05:11;101444.31;;;24.71;100.00
66164;BME280;52962;51.088;3.096;2023-06-22T10:07:41;101444.09;;;24.78;100.00
66164;BME280;52962;51.088;3.096;2023-06-22T10:10:11;101446.88;;;24.75;100.00
66164;BME280;52962;51.088;3.096;2023-06-22T10:12:46;101448.47;;;24.83;100.00
66164;BME280;52962;51.088;3.096;2023-06-22T10:15:14;101451.25;;;24.80;100.00
66164;BME280;52962;51.088;3.096;2023-06-22T10:17:42;101441.13;;;24.88;100.00
66164;BME280;52962;51.088;3.096;2023-06-22T10:20:11;101439.13;;;24.94;100.00
66164;BME280;52962;51.088;3.096;2023-06-22T10:22:43;101441.88;;;24.93;100.00
66164;BME280;52962;51.088;3.096;2023-06-22T10:25:12;101443.84;;;24.86;100.00
66164;BME280;52962;51.088;3.096;2023-06-22T10:27:40;101434.06;;;24.84;100.00
66164;BME280;52962;51.088;3.096;2023-06-22T10:30:10;101427.09;;;24.76;100.00
66164;BME280;52962;51.088;3.096;2023-06-22T10:32:40;101434.38;;;24.73;100.00
66164;BME280;52962;51.088;3.096;2023-06-22T10:35:09;101427.00;;;24.80;100.00
66164;BME280;52962;51.088;3.096;2023-06-22T10:37:42;101427.75;;;24.85;100.00
66164;BME280;52962;51.088;3.096;2023-06-22T10:40:12;101421.34;;;24.89;100.00
66164;BME280;52962;51.088;3.096;2023-06-22T10:42:42;101420.44;;;24.88;100.00
66164;BME280;52962;51.088;3.096;2023-06-22T10:45:11;101424.97;;;24.88;100.00
66164;BME280;52962;51.088;3.096;2023-06-22T10:47:39;101418.78;;;24.84;100.00
66164;BME280;52962;51.088;3.096;2023-06-22T10:50:09;101415.16;;;24.85;100.00
66164;BME280;52962;51.088;3.096;2023-06-22T10:52:38;101412.50;;;24.84;100.00
66164;BME280;52962;51.088;3.096;2023-06-22T10:55:08;101410.59;;;24.87;100.00
66164;BME280;52962;51.088;3.096;2023-06-22T10:57:37;101407.16;;;24.82;100.00
66164;BME280;52962;51.088;3.096;2023-06-22T11:00:11;101418.78;;;24.84;100.00
66164;BME280;52962;51.088;3.096;2023-06-22T11:02:39;101415.09;;;24.87;100.00
66164;BME280;52962;51.088;3.096;2023-06-22T11:05:08;101408.84;;;24.86;100.00
66164;BME280;52962;51.088;3.096;2023-06-22T11:07:37;101406.56;;;24.72;100.00
66164;BME280;52962;51.088;3.096;2023-06-22T11:10:12;101413.88;;;24.67;100.00
66164;BME280;52962;51.088;3.096;2023-06-22T11:12:40;101410.25;;;24.68;100.00
66164;BME280;52962;51.088;3.096;2023-06-22T11:15:09;101410.81;;;24.49;100.00
66164;BME280;52962;51.088;3.096;2023-06-22T11:17:38;101413.44;;;24.52;100.00
66164;BME280;52962;51.088;3.096;2023-06-22T11:20:07;101421.59;;;24.49;100.00
66164;BME280;52962;51.088;3.096;2023-06-22T11:22:40;101413.91;;;24.35;100.00
66164;BME280;52962;51.088;3.096;2023-06-22T11:25:09;101409.34;;;24.37;100.00
66164;BME280;52962;51.088;3.096;2023-06-22T11:27:40;101414.50;;;24.46;100.00
66164;BME280;52962;51.088;3.096;2023-06-22T11:30:09;101412.97;;;24.36;100.00
66164;BME280;52962;51.088;3.096;2023-06-22T11:32:37;101407.72;;;24.31;100.00
66164;BME280;52962;51.088;3.096;2023-06-22T11:35:06;101408.19;;;24.47;100.00
66164;BME280;52962;51.088;3.096;2023-06-22T11:37:34;101406.72;;;24.35;100.00
66164;BME280;52962;51.088;3.096;2023-06-22T11:40:03;101403.09;;;24.36;100.00
66164;BME280;52962;51.088;3.096;2023-06-22T11:42:35;101407.75;;;24.30;100.00
66164;BME280;52962;51.088;3.096;2023-06-22T11:45:07;101407.75;;;24.30;100.00
66164;BME280;52962;51.088;3.096;2023-06-22T11:47:36;101401.44;;;24.31;100.00
66164;BME280;52962;51.088;3.096;2023-06-22T11:50:06;101402.47;;;24.27;100.00
66164;BME280;52962;51.088;3.096;2023-06-22T11:52:34;101395.69;;;24.10;100.00
66164;BME280;52962;51.088;3.096;2023-06-22T11:55:04;101404.72;;;24.08;100.00
66164;BME280;52962;51.088;3.096;2023-06-22T11:57:34;101402.00;;;24.09;100.00
66164;BME280;52962;51.088;3.096;2023-06-22T12:00:03;101392.75;;;24.20;100.00
66164;BME280;52962;51.088;3.096;2023-06-22T12:02:42;101400.66;;;24.27;100.00
66164;BME280;52962;51.088;3.096;2023-06-22T12:05:10;101400.66;;;24.27;100.00
66164;BME280;52962;51.088;3.096;2023-06-22T12:07:39;101399.78;;;24.25;100.00
66164;BME280;52962;51.088;3.096;2023-06-22T12:10:08;101397.88;;;24.30;100.00
66164;BME280;52962;51.088;3.096;2023-06-22T12:12:36;101398.75;;;24.31;100.00
66164;BME280;52962;51.088;3.096;2023-06-22T12:15:05;101399.19;;;24.14;100.00
66164;BME280;52962;51.088;3.096;2023-06-22T12:17:34;101403.09;;;24.02;100.00
66164;BME280;52962;51.088;3.096;2023-06-22T12:20:05;101407.41;;;24.08;100.00
66164;BME280;52962;51.088;3.096;2023-06-22T12:22:35;101414.84;;;23.98;100.00
66164;BME280;52962;51.088;3.096;2023-06-22T12:25:05;101407.66;;;23.99;100.00
66164;BME280;52962;51.088;3.096;2023-06-22T12:27:33;101410.34;;;23.99;100.00
66164;BME280;52962;51.088;3.096;2023-06-22T12:30:02;101412.00;;;24.04;100.00
66164;BME280;52962;51.088;3.096;2023-06-22T12:32:31;101415.81;;;23.96;100.00
66164;BME280;52962;51.088;3.096;2023-06-22T12:34:59;101405.28;;;23.88;100.00
66164;BME280;52962;51.088;3.096;2023-06-22T12:37:29;101411.56;;;23.89;100.00
66164;BME280;52962;51.088;3.096;2023-06-22T12:39:58;101402.63;;;23.87;100.00
66164;BME280;52962;51.088;3.096;2023-06-22T12:42:26;101410.44;;;23.96;100.00
66164;BME280;52962;51.088;3.096;2023-06-22T12:44:55;101405.84;;;23.99;100.00
66164;BME280;52962;51.088;3.096;2023-06-22T12:47:23;101409.38;;;24.01;100.00
66164;BME280;52962;51.088;3.096;2023-06-22T12:49:51;101404.00;;;24.01;100.00
66164;BME280;52962;51.088;3.096;2023-06-22T12:52:19;101406.84;;;23.95;100.00